sensor_id;sensor_type;location;lat;lon;timestamp;P1;durP1;ratioP1;P2;durP2;ratioP2
21432;SDS011;18592;49.708;10.900;2022-08-18T00:00:55;4.88;;;4.18;;
21432;SDS011;18592;49.708;10.900;2022-08-18T00:03:00;6.68;;;4.93;;
21432;SDS011;18592;49.708;10.900;2022-08-18T00:05:25;4.78;;;4.30;;
21432;SDS011;18592;49.708;10.900;2022-08-18T00:07:30;4.80;;;4.22;;
21432;SDS011;18592;49.708;10.900;2022-08-18T00:09:34;5.55;;;5.00;;
21432;SDS011;18592;49.708;10.900;2022-08-18T00:11:38;5.32;;;4.60;;
21432;SDS011;18592;49.708;10.900;2022-08-18T00:13:42;5.47;;;4.97;;
21432;SDS011;18592;49.708;10.900;2022-08-18T00:15:43;4.60;;;4.20;;
21432;SDS011;18592;49.708;10.900;2022-08-18T00:17:49;5.18;;;4.68;;
21432;SDS011;18592;49.708;10.900;2022-08-18T00:19:51;5.38;;;4.90;;
21432;SDS011;18592;49.708;10.900;2022-08-18T00:21:53;4.97;;;4.50;;
21432;SDS011;18592;49.708;10.900;2022-08-18T00:23:55;5.18;;;4.68;;
21432;SDS011;18592;49.708;10.900;2022-08-18T00:25:56;5.05;;;4.55;;
21432;SDS011;18592;49.708;10.900;2022-08-18T00:27:59;5.80;;;4.68;;
21432;SDS011;18592;49.708;10.900;2022-08-18T00:30:02;5.07;;;4.57;;
21432;SDS011;18592;49.708;10.900;2022-08-18T00:32:10;4.80;;;4.22;;
21432;SDS011;18592;49.708;10.900;2022-08-18T00:34:16;5.07;;;4.68;;
21432;SDS011;18592;49.708;10.900;2022-08-18T00:36:18;5.10;;;4.65;;
21432;SDS011;18592;49.708;10.900;2022-08-18T00:38:19;5.30;;;4.80;;
21432;SDS011;18592;49.708;10.900;2022-08-18T00:40:26;5.28;;;4.60;;
21432;SDS011;18592;49.708;10.900;2022-08-18T00:42:41;5.32;;;4.82;;
21432;SDS011;18592;49.708;10.900;2022-08-18T00:44:45;5.75;;;5.20;;
21432;SDS011;18592;49.708;10.900;2022-08-18T00:46:46;5.82;;;5.28;;
21432;SDS011;18592;49.708;10.900;2022-08-18T00:48:48;5.57;;;5.07;;
21432;SDS011;18592;49.708;10.900;2022-08-18T00:50:53;5.95;;;5.18;;
21432;SDS011;18592;49.708;10.900;2022-08-18T00:53:04;6.95;;;5.32;;
21432;SDS011;18592;49.708;10.900;2022-08-18T00:55:11;5.90;;;5.07;;
21432;SDS011;18592;49.708;10.900;2022-08-18T00:57:13;5.78;;;5.05;;
21432;SDS011;18592;49.708;10.900;2022-08-18T01:01:30;5.50;;;5.00;;
21432;SDS011;18592;49.708;10.900;2022-08-18T01:03:33;5.10;;;4.60;;
21432;SDS011;18592;49.708;10.900;2022-08-18T01:05:52;5.15;;;4.65;;
21432;SDS011;18592;49.708;10.900;2022-08-18T01:07:58;7.05;;;4.20;;
21432;SDS011;18592;49.708;10.900;2022-08-18T01:10:00;5.60;;;3.88;;
21432;SDS011;18592;49.708;10.900;2022-08-18T01:12:05;5.28;;;3.90;;
21432;SDS011;18592;49.708;10.900;2022-08-18T01:14:26;4.75;;;4.10;;
21432;SDS011;18592;49.708;10.900;2022-08-18T01:16:28;5.18;;;3.92;;
21432;SDS011;18592;49.708;10.900;2022-08-18T01:18:57;5.13;;;3.80;;
21432;SDS011;18592;49.708;10.900;2022-08-18T01:21:22;4.00;;;3.60;;
21432;SDS011;18592;49.708;10.900;2022-08-18T01:23:48;3.55;;;3.25;;
21432;SDS011;18592;49.708;10.900;2022-08-18T01:25:51;4.00;;;3.60;;
21432;SDS011;18592;49.708;10.900;2022-08-18T01:28:04;3.80;;;3.50;;
21432;SDS011;18592;49.708;10.900;2022-08-18T01:30:08;4.70;;;3.42;;
21432;SDS011;18592;49.708;10.900;2022-08-18T01:32:16;3.78;;;3.35;;
21432;SDS011;18592;49.708;10.900;2022-08-18T01:34:24;4.25;;;3.38;;
21432;SDS011;18592;49.708;10.900;2022-08-18T01:36:27;4.07;;;3.60;;
21432;SDS011;18592;49.708;10.900;2022-08-18T01:38:29;5.57;;;3.58;;
21432;SDS011;18592;49.708;10.900;2022-08-18T01:40:34;4.10;;;3.35;;
21432;SDS011;18592;49.708;10.900;2022-08-18T01:42:56;4.63;;;3.47;;
21432;SDS011;18592;49.708;10.900;2022-08-18T01:44:57;4.07;;;3.67;;
21432;SDS011;18592;49.708;10.900;2022-08-18T01:46:59;5.07;;;3.70;;
21432;SDS011;18592;49.708;10.900;2022-08-18T01:49:01;3.85;;;3.53;;
21432;SDS011;18592;49.708;10.900;2022-08-18T01:51:07;3.85;;;3.30;;
21432;SDS011;18592;49.708;10.900;2022-08-18T01:53:09;3.95;;;3.55;;
21432;SDS011;18592;49.708;10.900;2022-08-18T01:55:11;6.47;;;3.58;;
21432;SDS011;18592;49.708;10.900;2022-08-18T01:57:15;3.83;;;3.42;;
21432;SDS011;18592;49.708;10.900;2022-08-18T01:59:18;3.95;;;3.47;;
21432;SDS011;18592;49.708;10.900;2022-08-18T02:01:21;4.82;;;3.10;;
21432;SDS011;18592;49.708;10.900;2022-08-18T02:03:37;5.97;;;3.88;;
21432;SDS011;18592;49.708;10.900;2022-08-18T02:05:42;4.88;;;3.85;;
21432;SDS011;18592;49.708;10.900;2022-08-18T02:07:48;4.13;;;3.55;;
21432;SDS011;18592;49.708;10.900;2022-08-18T02:09:54;4.43;;;3.70;;
21432;SDS011;18592;49.708;10.900;2022-08-18T02:11:59;3.70;;;3.40;;
21432;SDS011;18592;49.708;10.900;2022-08-18T02:14:01;3.80;;;3.45;;
21432;SDS011;18592;49.708;10.900;2022-08-18T02:16:02;3.92;;;3.63;;
21432;SDS011;18592;49.708;10.900;2022-08-18T02:18:05;5.30;;;3.55;;
21432;SDS011;18592;49.708;10.900;2022-08-18T02:20:06;4.15;;;3.75;;
21432;SDS011;18592;49.708;10.900;2022-08-18T02:22:12;6.20;;;4.03;;
21432;SDS011;18592;49.708;10.900;2022-08-18T02:24:16;3.55;;;3.22;;
21432;SDS011;18592;49.708;10.900;2022-08-18T02:26:17;3.97;;;3.67;;
21432;SDS011;18592;49.708;10.900;2022-08-18T02:28:19;4.43;;;3.88;;
21432;SDS011;18592;49.708;10.900;2022-08-18T02:30:21;4.30;;;3.58;;
21432;SDS011;18592;49.708;10.900;2022-08-18T02:32:22;3.75;;;3.45;;
21432;SDS011;18592;49.708;10.900;2022-08-18T02:34:27;3.92;;;3.33;;
21432;SDS011;18592;49.708;10.900;2022-08-18T02:36:28;4.07;;;3.67;;
21432;SDS011;18592;49.708;10.900;2022-08-18T02:38:30;3.92;;;3.50;;
21432;SDS011;18592;49.708;10.900;2022-08-18T02:40:34;5.95;;;3.75;;
21432;SDS011;18592;49.708;10.900;2022-08-18T02:42:36;3.65;;;3.35;;
21432;SDS011;18592;49.708;10.900;2022-08-18T02:44:39;5.20;;;4.35;;
21432;SDS011;18592;49.708;10.900;2022-08-18T02:46:42;5.15;;;3.53;;
21432;SDS011;18592;49.708;10.900;2022-08-18T02:48:44;4.15;;;3.75;;
21432;SDS011;18592;49.708;10.900;2022-08-18T02:50:46;4.57;;;3.55;;
21432;SDS011;18592;49.708;10.900;2022-08-18T02:52:48;5.55;;;3.85;;
21432;SDS011;18592;49.708;10.900;2022-08-18T02:54:49;4.82;;;4.28;;
21432;SDS011;18592;49.708;10.900;2022-08-18T02:56:51;6.30;;;4.00;;
21432;SDS011;18592;49.708;10.900;2022-08-18T02:58:58;9.30;;;4.55;;
21432;SDS011;18592;49.708;10.900;2022-08-18T03:01:02;5.43;;;4.07;;
21432;SDS011;18592;49.708;10.900;2022-08-18T03:03:03;5.90;;;4.20;;
21432;SDS011;18592;49.708;10.900;2022-08-18T03:05:05;6.50;;;4.65;;
21432;SDS011;18592;49.708;10.900;2022-08-18T03:07:14;4.68;;;4.05;;
21432;SDS011;18592;49.708;10.900;2022-08-18T03:09:16;5.43;;;4.20;;
21432;SDS011;18592;49.708;10.900;2022-08-18T03:11:21;4.68;;;4.05;;
21432;SDS011;18592;49.708;10.900;2022-08-18T03:13:25;4.80;;;4.22;;
21432;SDS011;18592;49.708;10.900;2022-08-18T03:15:26;4.57;;;4.18;;
21432;SDS011;18592;49.708;10.900;2022-08-18T03:17:29;6.35;;;3.83;;
21432;SDS011;18592;49.708;10.900;2022-08-18T03:19:32;4.40;;;4.00;;
21432;SDS011;18592;49.708;10.900;2022-08-18T03:21:35;4.50;;;4.10;;
21432;SDS011;18592;49.708;10.900;2022-08-18T03:23:39;4.70;;;4.20;;
21432;SDS011;18592;49.708;10.900;2022-08-18T03:25:43;4.68;;;4.07;;
21432;SDS011;18592;49.708;10.900;2022-08-18T03:27:49;4.88;;;4.28;;
21432;SDS011;18592;49.708;10.900;2022-08-18T03:29:51;4.60;;;4.20;;
21432;SDS011;18592;49.708;10.900;2022-08-18T03:31:53;4.55;;;4.10;;
21432;SDS011;18592;49.708;10.900;2022-08-18T03:33:55;5.13;;;4.40;;
21432;SDS011;18592;49.708;10.900;2022-08-18T03:36:06;4.53;;;4.13;;
21432;SDS011;18592;49.708;10.900;2022-08-18T03:38:10;4.43;;;4.03;;
21432;SDS011;18592;49.708;10.900;2022-08-18T03:40:12;5.65;;;4.25;;
21432;SDS011;18592;49.708;10.900;2022-08-18T03:42:14;4.72;;;4.32;;
21432;SDS011;18592;49.708;10.900;2022-08-18T03:44:17;4.72;;;4.10;;
21432;SDS011;18592;49.708;10.900;2022-08-18T03:46:20;4.38;;;4.07;;
21432;SDS011;18592;49.708;10.900;2022-08-18T03:48:22;4.97;;;4.50;;
21432;SDS011;18592;49.708;10.900;2022-08-18T03:50:26;4.82;;;4.43;;
21432;SDS011;18592;49.708;10.900;2022-08-18T03:52:30;5.63;;;4.43;;
21432;SDS011;18592;49.708;10.900;2022-08-18T03:54:32;4.50;;;4.13;;
21432;SDS011;18592;49.708;10.900;2022-08-18T03:56:35;4.65;;;4.22;;
21432;SDS011;18592;49.708;10.900;2022-08-18T03:58:39;5.68;;;4.53;;
21432;SDS011;18592;49.708;10.900;2022-08-18T04:00:40;4.45;;;4.05;;
21432;SDS011;18592;49.708;10.900;2022-08-18T04:02:42;4.60;;;4.15;;
21432;SDS011;18592;49.708;10.900;2022-08-18T04:04:43;4.70;;;4.30;;
21432;SDS011;18592;49.708;10.900;2022-08-18T04:06:47;4.93;;;4.38;;
21432;SDS011;18592;49.708;10.900;2022-08-18T04:08:51;5.28;;;4.38;;
21432;SDS011;18592;49.708;10.900;2022-08-18T04:10:54;5.05;;;4.65;;
21432;SDS011;18592;49.708;10.900;2022-08-18T04:12:56;4.53;;;4.18;;
21432;SDS011;18592;49.708;10.900;2022-08-18T04:14:58;4.97;;;4.57;;
21432;SDS011;18592;49.708;10.900;2022-08-18T04:17:00;6.13;;;4.22;;
21432;SDS011;18592;49.708;10.900;2022-08-18T04:19:02;4.60;;;4.20;;
21432;SDS011;18592;49.708;10.900;2022-08-18T04:21:06;5.32;;;4.30;;
21432;SDS011;18592;49.708;10.900;2022-08-18T04:23:10;4.95;;;4.50;;
21432;SDS011;18592;49.708;10.900;2022-08-18T04:25:12;4.93;;;4.53;;
21432;SDS011;18592;49.708;10.900;2022-08-18T04:27:15;4.72;;;4.32;;
21432;SDS011;18592;49.708;10.900;2022-08-18T04:29:17;4.93;;;4.38;;
21432;SDS011;18592;49.708;10.900;2022-08-18T04:31:21;4.43;;;4.03;;
21432;SDS011;18592;49.708;10.900;2022-08-18T04:33:25;5.00;;;4.50;;
21432;SDS011;18592;49.708;10.900;2022-08-18T04:35:27;6.75;;;4.63;;
21432;SDS011;18592;49.708;10.900;2022-08-18T04:37:30;4.80;;;4.40;;
21432;SDS011;18592;49.708;10.900;2022-08-18T04:39:38;4.88;;;4.43;;
21432;SDS011;18592;49.708;10.900;2022-08-18T04:41:40;5.03;;;4.53;;
21432;SDS011;18592;49.708;10.900;2022-08-18T04:43:44;4.43;;;4.03;;
21432;SDS011;18592;49.708;10.900;2022-08-18T04:45:48;5.15;;;4.65;;
21432;SDS011;18592;49.708;10.900;2022-08-18T04:47:51;5.25;;;4.32;;
21432;SDS011;18592;49.708;10.900;2022-08-18T04:49:54;5.13;;;4.63;;
21432;SDS011;18592;49.708;10.900;2022-08-18T04:51:55;4.70;;;4.30;;
21432;SDS011;18592;49.708;10.900;2022-08-18T04:54:36;4.78;;;4.25;;
21432;SDS011;18592;49.708;10.900;2022-08-18T04:56:39;5.88;;;4.93;;
21432;SDS011;18592;49.708;10.900;2022-08-18T04:58:40;6.13;;;5.07;;
21432;SDS011;18592;49.708;10.900;2022-08-18T05:00:42;6.18;;;5.00;;
21432;SDS011;18592;49.708;10.900;2022-08-18T05:02:46;5.35;;;4.95;;
21432;SDS011;18592;49.708;10.900;2022-08-18T05:04:47;5.00;;;4.60;;
21432;SDS011;18592;49.708;10.900;2022-08-18T05:06:49;5.07;;;4.57;;
21432;SDS011;18592;49.708;10.900;2022-08-18T05:08:52;5.50;;;5.03;;
21432;SDS011;18592;49.708;10.900;2022-08-18T05:10:55;7.03;;;4.45;;
21432;SDS011;18592;49.708;10.900;2022-08-18T05:13:04;5.85;;;4.55;;
21432;SDS011;18592;49.708;10.900;2022-08-18T05:15:07;5.47;;;4.97;;
21432;SDS011;18592;49.708;10.900;2022-08-18T05:17:10;6.55;;;5.30;;
21432;SDS011;18592;49.708;10.900;2022-08-18T05:19:12;5.32;;;4.82;;
21432;SDS011;18592;49.708;10.900;2022-08-18T05:21:18;6.75;;;4.65;;
21432;SDS011;18592;49.708;10.900;2022-08-18T05:23:20;5.22;;;4.82;;
21432;SDS011;18592;49.708;10.900;2022-08-18T05:25:23;6.28;;;5.00;;
21432;SDS011;18592;49.708;10.900;2022-08-18T05:27:29;5.15;;;4.75;;
21432;SDS011;18592;49.708;10.900;2022-08-18T05:29:33;5.45;;;4.63;;
21432;SDS011;18592;49.708;10.900;2022-08-18T05:31:47;5.47;;;4.97;;
21432;SDS011;18592;49.708;10.900;2022-08-18T05:33:50;5.13;;;4.63;;
21432;SDS011;18592;49.708;10.900;2022-08-18T05:35:59;4.68;;;4.28;;
21432;SDS011;18592;49.708;10.900;2022-08-18T05:40:17;6.20;;;5.10;;
21432;SDS011;18592;49.708;10.900;2022-08-18T05:42:23;5.07;;;4.68;;
21432;SDS011;18592;49.708;10.900;2022-08-18T05:44:29;5.22;;;4.72;;
21432;SDS011;18592;49.708;10.900;2022-08-18T05:46:37;5.30;;;4.75;;
21432;SDS011;18592;49.708;10.900;2022-08-18T05:48:45;6.00;;;5.07;;
21432;SDS011;18592;49.708;10.900;2022-08-18T05:50:47;5.38;;;4.75;;
21432;SDS011;18592;49.708;10.900;2022-08-18T05:55:11;5.82;;;4.82;;
21432;SDS011;18592;49.708;10.900;2022-08-18T05:57:46;5.15;;;4.68;;
21432;SDS011;18592;49.708;10.900;2022-08-18T05:59:53;5.07;;;4.68;;
21432;SDS011;18592;49.708;10.900;2022-08-18T06:01:58;4.68;;;4.28;;
21432;SDS011;18592;49.708;10.900;2022-08-18T06:04:22;6.07;;;5.32;;
21432;SDS011;18592;49.708;10.900;2022-08-18T06:06:31;5.30;;;4.60;;
21432;SDS011;18592;49.708;10.900;2022-08-18T06:09:20;5.20;;;4.70;;
21432;SDS011;18592;49.708;10.900;2022-08-18T06:11:04;6.03;;;4.85;;
21432;SDS011;18592;49.708;10.900;2022-08-18T06:13:17;5.50;;;5.00;;
21432;SDS011;18592;49.708;10.900;2022-08-18T06:15:25;5.35;;;4.85;;
21432;SDS011;18592;49.708;10.900;2022-08-18T06:22:24;5.18;;;4.78;;
21432;SDS011;18592;49.708;10.900;2022-08-18T06:24:37;5.18;;;4.68;;
21432;SDS011;18592;49.708;10.900;2022-08-18T06:26:49;5.82;;;5.22;;
21432;SDS011;18592;49.708;10.900;2022-08-18T06:31:16;6.53;;;5.38;;
21432;SDS011;18592;49.708;10.900;2022-08-18T06:33:44;5.63;;;5.13;;
21432;SDS011;18592;49.708;10.900;2022-08-18T06:36:33;6.47;;;5.25;;
21432;SDS011;18592;49.708;10.900;2022-08-18T06:43:36;6.10;;;5.50;;
21432;SDS011;18592;49.708;10.900;2022-08-18T06:45:42;5.82;;;5.10;;
21432;SDS011;18592;49.708;10.900;2022-08-18T06:47:59;6.05;;;5.45;;
21432;SDS011;18592;49.708;10.900;2022-08-18T06:50:17;5.72;;;5.15;;
21432;SDS011;18592;49.708;10.900;2022-08-18T06:54:34;5.40;;;4.68;;
21432;SDS011;18592;49.708;10.900;2022-08-18T06:56:52;7.70;;;5.05;;
21432;SDS011;18592;49.708;10.900;2022-08-18T06:59:10;5.72;;;5.22;;
21432;SDS011;18592;49.708;10.900;2022-08-18T07:01:14;5.93;;;5.18;;
21432;SDS011;18592;49.708;10.900;2022-08-18T07:03:20;6.40;;;5.05;;
21432;SDS011;18592;49.708;10.900;2022-08-18T07:05:26;5.38;;;4.90;;
21432;SDS011;18592;49.708;10.900;2022-08-18T07:07:34;5.30;;;4.90;;
21432;SDS011;18592;49.708;10.900;2022-08-18T07:09:40;5.03;;;4.63;;
21432;SDS011;18592;49.708;10.900;2022-08-18T07:11:56;5.70;;;5.20;;
21432;SDS011;18592;49.708;10.900;2022-08-18T07:14:22;5.50;;;5.00;;
21432;SDS011;18592;49.708;10.900;2022-08-18T07:18:47;5.50;;;5.00;;
21432;SDS011;18592;49.708;10.900;2022-08-18T07:20:51;5.72;;;5.13;;
21432;SDS011;18592;49.708;10.900;2022-08-18T07:23:00;5.28;;;4.78;;
21432;SDS011;18592;49.708;10.900;2022-08-18T07:25:10;7.25;;;5.50;;
21432;SDS011;18592;49.708;10.900;2022-08-18T07:27:40;5.65;;;5.13;;
21432;SDS011;18592;49.708;10.900;2022-08-18T07:30:04;5.05;;;4.65;;
21432;SDS011;18592;49.708;10.900;2022-08-18T07:32:12;5.45;;;4.97;;
21432;SDS011;18592;49.708;10.900;2022-08-18T07:36:43;5.22;;;4.78;;
21432;SDS011;18592;49.708;10.900;2022-08-18T07:39:03;5.35;;;4.95;;
21432;SDS011;18592;49.708;10.900;2022-08-18T07:43:59;6.03;;;5.45;;
21432;SDS011;18592;49.708;10.900;2022-08-18T07:46:27;5.63;;;5.13;;
21432;SDS011;18592;49.708;10.900;2022-08-18T07:48:34;5.15;;;4.75;;
21432;SDS011;18592;49.708;10.900;2022-08-18T07:50:45;5.20;;;4.72;;
21432;SDS011;18592;49.708;10.900;2022-08-18T07:53:04;5.45;;;4.82;;
21432;SDS011;18592;49.708;10.900;2022-08-18T08:00:19;5.85;;;5.35;;
21432;SDS011;18592;49.708;10.900;2022-08-18T08:05:28;5.25;;;4.75;;
21432;SDS011;18592;49.708;10.900;2022-08-18T08:07:48;6.10;;;5.43;;
21432;SDS011;18592;49.708;10.900;2022-08-18T08:14:44;5.30;;;4.80;;
21432;SDS011;18592;49.708;10.900;2022-08-18T08:19:28;5.93;;;5.38;;
21432;SDS011;18592;49.708;10.900;2022-08-18T08:22:09;5.53;;;5.03;;
21432;SDS011;18592;49.708;10.900;2022-08-18T08:24:17;5.90;;;5.30;;
21432;SDS011;18592;49.708;10.900;2022-08-18T08:33:39;5.60;;;5.10;;
21432;SDS011;18592;49.708;10.900;2022-08-18T08:35:50;6.25;;;5.43;;
21432;SDS011;18592;49.708;10.900;2022-08-18T08:38:00;5.43;;;4.93;;
21432;SDS011;18592;49.708;10.900;2022-08-18T08:40:25;5.25;;;4.78;;
21432;SDS011;18592;49.708;10.900;2022-08-18T08:45:06;5.43;;;5.00;;
21432;SDS011;18592;49.708;10.900;2022-08-18T08:47:16;5.10;;;4.70;;
21432;SDS011;18592;49.708;10.900;2022-08-18T08:51:37;5.47;;;4.97;;
21432;SDS011;18592;49.708;10.900;2022-08-18T08:53:45;4.97;;;4.50;;
21432;SDS011;18592;49.708;10.900;2022-08-18T08:55:56;5.10;;;4.70;;
21432;SDS011;18592;49.708;10.900;2022-08-18T09:00:27;5.72;;;5.07;;
21432;SDS011;18592;49.708;10.900;2022-08-18T09:02:31;5.60;;;5.00;;
21432;SDS011;18592;49.708;10.900;2022-08-18T09:04:54;5.78;;;4.70;;
21432;SDS011;18592;49.708;10.900;2022-08-18T09:16:52;5.43;;;4.55;;
21432;SDS011;18592;49.708;10.900;2022-08-18T09:21:45;5.07;;;4.68;;
21432;SDS011;18592;49.708;10.900;2022-08-18T09:26:41;5.28;;;4.78;;
21432;SDS011;18592;49.708;10.900;2022-08-18T09:29:25;5.22;;;4.72;;
21432;SDS011;18592;49.708;10.900;2022-08-18T09:31:47;5.28;;;4.72;;
21432;SDS011;18592;49.708;10.900;2022-08-18T09:34:24;5.13;;;4.72;;
21432;SDS011;18592;49.708;10.900;2022-08-18T09:36:42;4.90;;;4.50;;
21432;SDS011;18592;49.708;10.900;2022-08-18T09:41:56;4.38;;;4.03;;
21432;SDS011;18592;49.708;10.900;2022-08-18T09:44:08;5.20;;;4.70;;
21432;SDS011;18592;49.708;10.900;2022-08-18T09:46:48;5.13;;;4.60;;
21432;SDS011;18592;49.708;10.900;2022-08-18T09:48:48;4.78;;;4.40;;
21432;SDS011;18592;49.708;10.900;2022-08-18T09:51:38;4.93;;;4.53;;
21432;SDS011;18592;49.708;10.900;2022-08-18T09:55:55;4.95;;;4.55;;
21432;SDS011;18592;49.708;10.900;2022-08-18T10:00:40;4.80;;;4.40;;
21432;SDS011;18592;49.708;10.900;2022-08-18T10:07:28;4.45;;;4.15;;
21432;SDS011;18592;49.708;10.900;2022-08-18T10:12:32;4.63;;;4.25;;
21432;SDS011;18592;49.708;10.900;2022-08-18T10:15:03;4.35;;;3.95;;
21432;SDS011;18592;49.708;10.900;2022-08-18T10:20:00;4.68;;;4.28;;
21432;SDS011;18592;49.708;10.900;2022-08-18T10:22:38;4.63;;;4.22;;
21432;SDS011;18592;49.708;10.900;2022-08-18T10:24:45;5.78;;;4.38;;
21432;SDS011;18592;49.708;10.900;2022-08-18T10:29:00;4.70;;;4.30;;
21432;SDS011;18592;49.708;10.900;2022-08-18T10:31:06;4.85;;;4.45;;
21432;SDS011;18592;49.708;10.900;2022-08-18T10:33:10;4.95;;;4.57;;
21432;SDS011;18592;49.708;10.900;2022-08-18T10:35:52;4.63;;;4.22;;
21432;SDS011;18592;49.708;10.900;2022-08-18T10:37:58;4.95;;;4.55;;
21432;SDS011;18592;49.708;10.900;2022-08-18T10:42:19;4.53;;;4.22;;
21432;SDS011;18592;49.708;10.900;2022-08-18T10:44:33;4.90;;;4.53;;
21432;SDS011;18592;49.708;10.900;2022-08-18T10:46:42;5.00;;;4.40;;
21432;SDS011;18592;49.708;10.900;2022-08-18T10:48:57;4.63;;;4.22;;
21432;SDS011;18592;49.708;10.900;2022-08-18T10:59:05;4.32;;;4.00;;
21432;SDS011;18592;49.708;10.900;2022-08-18T11:03:55;4.70;;;4.30;;
21432;SDS011;18592;49.708;10.900;2022-08-18T11:06:22;4.60;;;3.85;;
21432;SDS011;18592;49.708;10.900;2022-08-18T11:08:26;4.85;;;4.50;;
21432;SDS011;18592;49.708;10.900;2022-08-18T11:10:35;4.25;;;3.92;;
21432;SDS011;18592;49.708;10.900;2022-08-18T11:13:17;5.15;;;4.30;;
21432;SDS011;18592;49.708;10.900;2022-08-18T11:16:17;4.93;;;4.53;;
21432;SDS011;18592;49.708;10.900;2022-08-18T11:20:22;4.60;;;4.20;;
21432;SDS011;18592;49.708;10.900;2022-08-18T11:22:33;4.45;;;4.00;;
21432;SDS011;18592;49.708;10.900;2022-08-18T11:24:36;4.70;;;4.40;;
21432;SDS011;18592;49.708;10.900;2022-08-18T11:26:51;4.60;;;4.22;;
21432;SDS011;18592;49.708;10.900;2022-08-18T11:28:55;5.13;;;4.63;;
21432;SDS011;18592;49.708;10.900;2022-08-18T11:30:56;4.68;;;4.15;;
21432;SDS011;18592;49.708;10.900;2022-08-18T11:33:00;4.93;;;4.43;;
21432;SDS011;18592;49.708;10.900;2022-08-18T11:35:05;4.68;;;4.28;;
21432;SDS011;18592;49.708;10.900;2022-08-18T11:39:55;4.88;;;4.47;;
21432;SDS011;18592;49.708;10.900;2022-08-18T11:42:00;4.60;;;4.20;;
21432;SDS011;18592;49.708;10.900;2022-08-18T11:44:02;5.10;;;4.70;;
21432;SDS011;18592;49.708;10.900;2022-08-18T11:46:14;5.97;;;5.10;;
21432;SDS011;18592;49.708;10.900;2022-08-18T11:48:42;5.20;;;4.80;;
21432;SDS011;18592;49.708;10.900;2022-08-18T11:53:12;4.90;;;4.50;;
21432;SDS011;18592;49.708;10.900;2022-08-18T11:55:20;5.45;;;5.00;;
21432;SDS011;18592;49.708;10.900;2022-08-18T12:00:00;5.32;;;4.80;;
21432;SDS011;18592;49.708;10.900;2022-08-18T12:02:43;5.40;;;4.60;;
21432;SDS011;18592;49.708;10.900;2022-08-18T12:04:48;5.40;;;5.00;;
21432;SDS011;18592;49.708;10.900;2022-08-18T12:06:55;4.93;;;4.53;;
21432;SDS011;18592;49.708;10.900;2022-08-18T12:09:06;5.03;;;4.63;;
21432;SDS011;18592;49.708;10.900;2022-08-18T12:11:53;4.93;;;4.53;;
21432;SDS011;18592;49.708;10.900;2022-08-18T12:14:09;5.38;;;4.88;;
21432;SDS011;18592;49.708;10.900;2022-08-18T12:16:34;5.25;;;4.72;;
21432;SDS011;18592;49.708;10.900;2022-08-18T12:18:38;5.50;;;5.00;;
21432;SDS011;18592;49.708;10.900;2022-08-18T12:20:42;5.20;;;4.80;;
21432;SDS011;18592;49.708;10.900;2022-08-18T12:22:45;5.32;;;4.82;;
21432;SDS011;18592;49.708;10.900;2022-08-18T12:24:47;5.18;;;4.68;;
21432;SDS011;18592;49.708;10.900;2022-08-18T12:26:50;5.10;;;4.60;;
21432;SDS011;18592;49.708;10.900;2022-08-18T12:28:54;5.28;;;4.88;;
21432;SDS011;18592;49.708;10.900;2022-08-18T12:31:01;5.20;;;4.80;;
21432;SDS011;18592;49.708;10.900;2022-08-18T12:33:15;4.93;;;4.53;;
21432;SDS011;18592;49.708;10.900;2022-08-18T12:35:25;6.18;;;5.32;;
21432;SDS011;18592;49.708;10.900;2022-08-18T12:37:27;6.38;;;5.88;;
21432;SDS011;18592;49.708;10.900;2022-08-18T12:39:50;6.70;;;5.30;;
21432;SDS011;18592;49.708;10.900;2022-08-18T12:41:53;5.70;;;5.30;;
21432;SDS011;18592;49.708;10.900;2022-08-18T12:43:55;5.80;;;5.20;;
21432;SDS011;18592;49.708;10.900;2022-08-18T12:46:17;5.38;;;4.97;;
21432;SDS011;18592;49.708;10.900;2022-08-18T12:48:19;5.55;;;5.05;;
21432;SDS011;18592;49.708;10.900;2022-08-18T12:50:22;5.68;;;5.18;;
21432;SDS011;18592;49.708;10.900;2022-08-18T12:52:35;4.95;;;4.53;;
21432;SDS011;18592;49.708;10.900;2022-08-18T12:54:39;5.93;;;5.30;;
21432;SDS011;18592;49.708;10.900;2022-08-18T12:56:56;6.05;;;5.53;;
21432;SDS011;18592;49.708;10.900;2022-08-18T12:58:59;5.72;;;5.22;;
21432;SDS011;18592;49.708;10.900;2022-08-18T13:01:05;6.10;;;5.60;;
21432;SDS011;18592;49.708;10.900;2022-08-18T13:03:07;5.57;;;5.18;;
21432;SDS011;18592;49.708;10.900;2022-08-18T13:05:09;5.55;;;5.10;;
21432;SDS011;18592;49.708;10.900;2022-08-18T13:07:13;5.90;;;5.40;;
21432;SDS011;18592;49.708;10.900;2022-08-18T13:09:19;5.95;;;5.45;;
21432;SDS011;18592;49.708;10.900;2022-08-18T13:11:42;5.63;;;5.22;;
21432;SDS011;18592;49.708;10.900;2022-08-18T13:13:44;5.38;;;4.97;;
21432;SDS011;18592;49.708;10.900;2022-08-18T13:15:52;6.00;;;5.57;;
21432;SDS011;18592;49.708;10.900;2022-08-18T13:17:59;5.20;;;4.80;;
21432;SDS011;18592;49.708;10.900;2022-08-18T13:20:05;5.22;;;4.82;;
21432;SDS011;18592;49.708;10.900;2022-08-18T13:22:13;5.57;;;5.18;;
21432;SDS011;18592;49.708;10.900;2022-08-18T13:24:16;5.57;;;5.07;;
21432;SDS011;18592;49.708;10.900;2022-08-18T13:26:30;5.82;;;5.43;;
21432;SDS011;18592;49.708;10.900;2022-08-18T13:28:35;5.45;;;5.05;;
21432;SDS011;18592;49.708;10.900;2022-08-18T13:30:56;5.63;;;5.13;;
21432;SDS011;18592;49.708;10.900;2022-08-18T13:32:59;5.53;;;5.13;;
21432;SDS011;18592;49.708;10.900;2022-08-18T13:35:21;5.88;;;5.40;;
21432;SDS011;18592;49.708;10.900;2022-08-18T13:37:24;5.47;;;5.07;;
21432;SDS011;18592;49.708;10.900;2022-08-18T13:39:28;6.15;;;5.63;;
21432;SDS011;18592;49.708;10.900;2022-08-18T13:41:34;5.35;;;4.95;;
21432;SDS011;18592;49.708;10.900;2022-08-18T13:43:37;5.78;;;5.38;;
21432;SDS011;18592;49.708;10.900;2022-08-18T13:45:44;5.80;;;5.40;;
21432;SDS011;18592;49.708;10.900;2022-08-18T13:47:53;5.78;;;5.20;;
21432;SDS011;18592;49.708;10.900;2022-08-18T13:49:58;5.43;;;5.03;;
21432;SDS011;18592;49.708;10.900;2022-08-18T13:52:00;5.82;;;5.35;;
21432;SDS011;18592;49.708;10.900;2022-08-18T13:54:09;5.97;;;5.38;;
21432;SDS011;18592;49.708;10.900;2022-08-18T13:56:31;5.63;;;5.15;;
21432;SDS011;18592;49.708;10.900;2022-08-18T13:58:35;5.05;;;4.65;;
21432;SDS011;18592;49.708;10.900;2022-08-18T14:00:58;5.80;;;5.38;;
21432;SDS011;18592;49.708;10.900;2022-08-18T14:03:22;5.88;;;5.43;;
21432;SDS011;18592;49.708;10.900;2022-08-18T14:05:43;5.30;;;4.90;;
21432;SDS011;18592;49.708;10.900;2022-08-18T14:07:52;6.50;;;5.43;;
21432;SDS011;18592;49.708;10.900;2022-08-18T14:09:57;6.20;;;5.60;;
21432;SDS011;18592;49.708;10.900;2022-08-18T14:12:05;6.25;;;5.75;;
21432;SDS011;18592;49.708;10.900;2022-08-18T14:14:23;5.50;;;5.10;;
21432;SDS011;18592;49.708;10.900;2022-08-18T14:16:25;6.18;;;5.68;;
21432;SDS011;18592;49.708;10.900;2022-08-18T14:18:27;5.70;;;5.30;;
21432;SDS011;18592;49.708;10.900;2022-08-18T14:20:31;5.85;;;5.38;;
21432;SDS011;18592;49.708;10.900;2022-08-18T14:22:53;5.85;;;5.35;;
21432;SDS011;18592;49.708;10.900;2022-08-18T14:25:25;5.55;;;5.03;;
21432;SDS011;18592;49.708;10.900;2022-08-18T14:27:45;5.40;;;5.00;;
21432;SDS011;18592;49.708;10.900;2022-08-18T14:29:57;5.97;;;5.47;;
21432;SDS011;18592;49.708;10.900;2022-08-18T14:32:00;5.70;;;5.22;;
21432;SDS011;18592;49.708;10.900;2022-08-18T14:34:05;5.80;;;5.30;;
21432;SDS011;18592;49.708;10.900;2022-08-18T14:36:07;5.88;;;5.38;;
21432;SDS011;18592;49.708;10.900;2022-08-18T14:38:10;5.70;;;5.20;;
21432;SDS011;18592;49.708;10.900;2022-08-18T14:40:11;5.78;;;5.28;;